ePrivacy and GPDR Cookie Consent by Cookie Consent
EmailTwitter


Surface observations / Europe / LIRF (16242)

Regions: Quebec | Canada | USA | Europe | France | UK | Elsewhere
Station
Display
Info & Location for LIRF (16242) | Help decoding METAR

Weather Conditions observed on 2022/06/25 at 00:50 UTC (LIRF)

Temperature: 22.0 Celsius.

Dewpoint: 20.0 Celsius.

Relative Humidity: 88%

Humidex 30.

Winds: Variable at 4 km/h or 2 knots.

Mean Sea level Pressure: 101.40 kilopascals.

Coded METAR:

LIRF 250050Z VRB02KT CAVOK 22/20 Q1014 NOSIG=